KRWI/RWI METAR and TAF weather

Enter ICAO airport designator
Station Type Date Time Source
KRWI METAR 2020/12/06 00:53 UTC NOAA

KRWI 060053Z AUTO 26004KT 10SM CLR 05/01 A3000 RMK AO2 SLP160 T00500011


Station Type Date Time Source
KRWI Decoded METAR 2020/12/06 00:53 UTC NOAA

ROCKY MOUNT-WILSON AIRPORT, NC, United States (KRWI) 35-51N 077-54W 47M
Dec 05, 2020 - 07:53 PM EST / 2020.12.06 0053 UTC
Wind: from the W (260 degrees) at 5 MPH (4 KT):0
Visibility: 10 mile(s):0
Sky conditions: clear
Temperature: 41.0 F (5.0 C)
Dew Point: 34.0 F (1.1 C)
Relative Humidity: 75%
Pressure (altimeter): 30 in. Hg (1015 hPa)
ob: KRWI 060053Z AUTO 26004KT 10SM CLR 05/01 A3000 RMK AO2 SLP160 T00500011
cycle: 1

Station Type Date Time Source
KRWI TAF 2020/12/05 18:24 UTC NOAA

TAF KRWI 051722Z 0518/0618 31012G23KT P6SM BKN040
FM052100 31008KT P6SM FEW040
FM060500 VRB02KT P6SM SKC

Example: see airport list